createdAt,value
2023-05-21T00:00:32.245Z,100951.34
2023-05-21T00:02:59.646Z,100949.61
2023-05-21T00:05:27.031Z,100947.65
2023-05-21T00:07:55.095Z,100943.82
2023-05-21T00:10:22.276Z,100941.21
2023-05-21T00:12:49.371Z,100944.01
2023-05-21T00:15:16.499Z,100949.70
2023-05-21T00:17:43.728Z,100943.62
2023-05-21T00:20:11.127Z,100944.02
2023-05-21T00:22:38.191Z,100941.55
2023-05-21T00:25:05.579Z,100942.92
2023-05-21T00:27:32.535Z,100945.59
2023-05-21T00:29:59.603Z,100949.09
2023-05-21T00:32:26.714Z,100950.45
2023-05-21T00:34:54.373Z,100945.80
2023-05-21T00:37:21.985Z,100948.11
2023-05-21T00:39:49.016Z,100944.22
2023-05-21T00:42:18.371Z,100943.44
2023-05-21T00:44:45.701Z,100943.45
2023-05-21T00:47:13.096Z,100940.73
2023-05-21T00:49:40.153Z,100944.14
2023-05-21T00:52:07.504Z,100945.64
2023-05-21T00:54:34.516Z,100946.72
2023-05-21T00:57:01.773Z,100944.70
2023-05-21T00:59:28.853Z,100942.09
2023-05-21T01:01:56.555Z,100941.61
2023-05-21T01:04:23.973Z,100940.68
2023-05-21T01:06:51.297Z,100936.66
2023-05-21T01:09:18.395Z,100934.21
2023-05-21T01:11:47.846Z,100930.19
2023-05-21T01:14:15.520Z,100928.27
2023-05-21T01:16:44.262Z,100925.98
2023-05-21T01:19:12.752Z,100922.58
2023-05-21T01:21:42.685Z,100920.40
2023-05-21T01:24:09.702Z,100920.13
2023-05-21T01:26:39.025Z,100914.90
2023-05-21T01:29:06.927Z,100912.34
2023-05-21T01:31:39.708Z,100905.48
2023-05-21T01:34:06.858Z,100902.58
2023-05-21T01:36:38.308Z,100904.84
2023-05-21T01:39:09.609Z,100903.45
2023-05-21T01:41:38.445Z,100903.52
2023-05-21T01:44:05.467Z,100906.35
2023-05-21T01:46:33.641Z,100904.58
2023-05-21T01:49:00.850Z,100909.27
2023-05-21T01:51:28.137Z,100908.48
2023-05-21T01:53:55.156Z,100910.22
2023-05-21T01:56:26.124Z,100916.27
2023-05-21T01:58:53.299Z,100918.52
2023-05-21T02:01:20.537Z,100922.06
2023-05-21T02:03:47.607Z,100917.90
2023-05-21T02:06:14.800Z,100915.85
2023-05-21T02:08:41.912Z,100920.59
2023-05-21T02:11:10.260Z,100918.33
2023-05-21T02:13:42.237Z,100915.45
2023-05-21T02:16:12.152Z,100918.75
2023-05-21T02:18:39.695Z,100917.19
2023-05-21T02:21:06.853Z,100916.79
2023-05-21T02:23:33.951Z,100917.55
2023-05-21T02:26:00.992Z,100919.56
2023-05-21T02:28:29.920Z,100918.37
2023-05-21T02:30:57.328Z,100916.85
2023-05-21T02:33:24.379Z,100907.02
2023-05-21T02:35:51.472Z,100915.08
2023-05-21T02:38:19.671Z,100914.47
2023-05-21T02:40:46.822Z,100917.45
2023-05-21T02:43:15.399Z,100914.08
2023-05-21T02:45:43.819Z,100913.20
2023-05-21T02:48:11.696Z,100913.38
2023-05-21T02:50:40.887Z,100911.04
2023-05-21T02:53:08.083Z,100919.05
2023-05-21T02:55:35.681Z,100926.52
2023-05-21T02:58:03.011Z,100921.59
2023-05-21T03:00:30.114Z,100917.02
2023-05-21T03:02:57.372Z,100921.59
2023-05-21T03:05:24.674Z,100924.75
2023-05-21T03:07:51.711Z,100923.02
2023-05-21T03:10:18.817Z,100926.83
2023-05-21T03:12:46.057Z,100932.40
2023-05-21T03:15:14.988Z,100934.81
2023-05-21T03:17:45.196Z,100933.48
2023-05-21T03:20:17.307Z,100930.94
2023-05-21T03:22:44.773Z,100931.27
2023-05-21T03:25:12.524Z,100925.20
2023-05-21T03:27:39.709Z,100930.46
2023-05-21T03:30:12.387Z,100931.63
2023-05-21T03:32:51.760Z,100934.17
2023-05-21T03:35:18.912Z,100934.09
2023-05-21T03:37:46.602Z,100935.52
2023-05-21T03:40:14.339Z,100937.73
2023-05-21T03:42:42.120Z,100931.43
2023-05-21T03:45:09.712Z,100930.63
2023-05-21T03:48:02.156Z,100930.43
2023-05-21T03:50:30.184Z,100931.92
2023-05-21T03:52:57.572Z,100921.84
2023-05-21T03:55:24.618Z,100923.30
2023-05-21T03:57:51.613Z,100926.10
2023-05-21T04:00:18.952Z,100924.14
2023-05-21T04:02:47.610Z,100923.97
2023-05-21T04:05:16.486Z,100919.67
2023-05-21T04:07:46.537Z,100918.71
2023-05-21T04:10:13.918Z,100923.89
2023-05-21T04:12:41.147Z,100920.29
2023-05-21T04:15:08.710Z,100925.03
2023-05-21T04:17:35.940Z,100925.17
2023-05-21T04:20:04.077Z,100928.14
2023-05-21T04:22:31.211Z,100934.39
2023-05-21T04:24:59.813Z,100936.14
2023-05-21T04:27:30.454Z,100940.92
2023-05-21T04:29:58.250Z,100941.52
2023-05-21T04:32:25.392Z,100941.58
2023-05-21T04:34:52.481Z,100938.58
2023-05-21T04:37:19.652Z,100937.69
2023-05-21T04:39:47.127Z,100935.09
2023-05-21T04:42:14.463Z,100928.63
2023-05-21T04:44:44.718Z,100929.30
2023-05-21T04:47:15.087Z,100925.25
2023-05-21T04:49:42.448Z,100926.98
2023-05-21T04:52:09.708Z,100928.03
2023-05-21T04:54:39.329Z,100926.37
2023-05-21T04:57:07.683Z,100927.40
2023-05-21T04:59:35.562Z,100925.16
2023-05-21T05:02:02.987Z,100921.83
2023-05-21T05:04:30.070Z,100914.01
2023-05-21T05:06:57.224Z,100918.26
2023-05-21T05:09:26.168Z,100921.16
2023-05-21T05:11:53.715Z,100914.02
2023-05-21T05:14:20.847Z,100916.23
2023-05-21T05:16:51.001Z,100909.09
2023-05-21T05:19:18.387Z,100914.04
2023-05-21T05:21:45.846Z,100911.05
2023-05-21T05:24:13.005Z,100913.89
2023-05-21T05:26:40.062Z,100914.02
2023-05-21T05:29:07.198Z,100908.39
2023-05-21T05:31:34.567Z,100920.45
2023-05-21T05:34:02.461Z,100920.42
2023-05-21T05:36:29.820Z,100917.36
2023-05-21T05:38:57.022Z,100915.98
2023-05-21T05:41:25.453Z,100921.71
2023-05-21T05:43:52.992Z,100921.19
2023-05-21T05:46:21.436Z,100916.00
2023-05-21T05:48:48.647Z,100912.73
2023-05-21T05:51:17.526Z,100914.75
2023-05-21T05:53:45.810Z,100909.79
2023-05-21T05:56:12.994Z,100913.77
2023-05-21T05:58:41.052Z,100915.91
2023-05-21T06:01:13.882Z,100912.50
2023-05-21T06:03:41.305Z,100916.10
2023-05-21T06:06:14.618Z,100916.98
2023-05-21T06:08:43.652Z,100905.07
2023-05-21T06:11:13.410Z,100891.55
2023-05-21T06:13:41.805Z,100897.71
2023-05-21T06:16:10.181Z,100901.10
2023-05-21T06:18:38.309Z,100889.22
2023-05-21T06:21:05.437Z,100886.92
2023-05-21T06:23:32.871Z,100891.08
2023-05-21T06:26:00.981Z,100876.94
2023-05-21T06:28:28.163Z,100875.87
2023-05-21T06:30:55.667Z,100873.95
2023-05-21T06:33:24.118Z,100877.79
2023-05-21T06:35:52.703Z,100878.76
2023-05-21T06:38:20.546Z,100875.25
2023-05-21T06:40:48.061Z,100874.80
2023-05-21T06:43:21.127Z,100882.77
2023-05-21T06:46:08.537Z,100889.52
2023-05-21T06:48:38.978Z,100887.43
2023-05-21T06:51:06.202Z,100892.58
2023-05-21T06:53:33.458Z,100894.30
2023-05-21T06:56:01.244Z,100892.05
2023-05-21T06:58:36.372Z,100893.73
2023-05-21T07:01:04.789Z,100888.30
2023-05-21T07:03:32.087Z,100886.27
2023-05-21T07:05:59.485Z,100886.79
2023-05-21T07:08:26.622Z,100886.81
2023-05-21T07:10:53.872Z,100895.06
2023-05-21T07:13:21.638Z,100885.44
2023-05-21T07:15:48.755Z,100884.86
2023-05-21T07:18:16.973Z,100880.75
2023-05-21T07:20:44.740Z,100869.98
2023-05-21T07:23:13.997Z,100876.66
2023-05-21T07:25:41.268Z,100876.20
2023-05-21T07:28:09.353Z,100879.07
2023-05-21T07:30:37.113Z,100877.17
2023-05-21T07:33:06.613Z,100875.33
2023-05-21T07:35:33.818Z,100876.73
2023-05-21T07:38:01.022Z,100873.45
2023-05-21T07:40:28.218Z,100882.61
2023-05-21T07:42:55.511Z,100871.67
2023-05-21T07:45:23.036Z,100869.34
2023-05-21T07:47:50.621Z,100873.66
2023-05-21T07:50:18.041Z,100868.08
2023-05-21T07:52:45.242Z,100865.55
2023-05-21T07:55:12.417Z,100862.16
2023-05-21T07:57:40.292Z,100862.44
2023-05-21T08:00:16.299Z,100864.59
2023-05-21T08:02:47.745Z,100871.73
2023-05-21T08:05:16.668Z,100872.63
2023-05-21T08:07:46.141Z,100874.80
2023-05-21T08:10:19.253Z,100873.48
2023-05-21T08:12:49.893Z,100882.82
2023-05-21T08:15:18.720Z,100880.91
2023-05-21T08:17:48.284Z,100882.60
2023-05-21T08:20:16.494Z,100880.05
2023-05-21T08:22:45.349Z,100883.20
2023-05-21T08:25:14.053Z,100885.17
2023-05-21T08:27:42.413Z,100886.20
2023-05-21T08:30:11.836Z,100894.23
2023-05-21T08:32:39.899Z,100897.14
2023-05-21T08:35:08.566Z,100887.75
2023-05-21T08:37:56.573Z,100883.55
2023-05-21T08:40:42.860Z,100884.98
2023-05-21T08:43:14.027Z,100886.30
2023-05-21T08:45:45.748Z,100885.17
2023-05-21T08:48:13.410Z,100893.08
2023-05-21T08:50:41.085Z,100891.89
2023-05-21T08:53:19.859Z,100886.95
2023-05-21T08:55:58.850Z,100884.90
2023-05-21T08:58:35.811Z,100879.37
2023-05-21T09:01:02.941Z,100876.23
2023-05-21T09:03:31.977Z,100876.34
2023-05-21T09:05:59.342Z,100870.64
2023-05-21T09:08:33.049Z,100877.82
2023-05-21T09:11:22.966Z,100878.73
2023-05-21T09:13:54.479Z,100870.86
2023-05-21T09:16:29.359Z,100880.84
2023-05-21T09:18:56.700Z,100877.90
2023-05-21T09:21:31.712Z,100871.76
2023-05-21T09:24:09.902Z,100873.36
2023-05-21T09:26:38.607Z,100877.41
2023-05-21T09:29:06.259Z,100882.91
2023-05-21T09:31:35.391Z,100875.30
2023-05-21T09:34:02.819Z,100874.44
2023-05-21T09:36:32.155Z,100874.30
2023-05-21T09:39:00.387Z,100876.22
2023-05-21T09:41:36.034Z,100881.52
2023-05-21T09:44:04.242Z,100880.25
2023-05-21T09:46:41.471Z,100873.26
2023-05-21T09:49:26.592Z,100878.34
2023-05-21T09:51:58.361Z,100873.63
2023-05-21T09:54:35.132Z,100874.95
2023-05-21T09:57:05.410Z,100873.73
2023-05-21T09:59:36.739Z,100868.71
2023-05-21T10:02:03.977Z,100864.50
2023-05-21T10:04:31.812Z,100863.50
2023-05-21T10:06:59.039Z,100858.59
2023-05-21T10:09:26.172Z,100860.52
2023-05-21T10:11:53.358Z,100862.67
2023-05-21T10:14:20.709Z,100857.57
2023-05-21T10:16:48.089Z,100856.75
2023-05-21T10:19:15.894Z,100855.45
2023-05-21T10:21:43.465Z,100853.33
2023-05-21T10:24:10.695Z,100862.91
2023-05-21T10:26:38.581Z,100857.23
2023-05-21T10:29:05.680Z,100855.64
2023-05-21T10:31:33.483Z,100852.38
2023-05-21T10:34:00.838Z,100849.30
2023-05-21T10:36:30.022Z,100856.31
2023-05-21T10:38:57.352Z,100849.42
2023-05-21T10:41:26.261Z,100844.45
2023-05-21T10:44:05.388Z,100847.83
2023-05-21T10:46:38.458Z,100851.44
2023-05-21T10:49:25.662Z,100846.08
2023-05-21T10:52:28.309Z,100851.04
2023-05-21T10:55:38.283Z,100845.08
2023-05-21T10:58:29.281Z,100848.14
2023-05-21T11:00:57.141Z,100842.29
2023-05-21T11:03:24.333Z,100849.88
2023-05-21T11:05:52.354Z,100850.70
2023-05-21T11:08:36.117Z,100854.08
2023-05-21T11:11:03.947Z,100852.67
2023-05-21T11:13:49.630Z,100853.81
2023-05-21T11:16:17.173Z,100860.70
2023-05-21T11:18:47.364Z,100849.98
2023-05-21T11:21:16.120Z,100852.66
2023-05-21T11:23:52.696Z,100853.37
2023-05-21T11:26:30.554Z,100849.21
2023-05-21T11:29:08.195Z,100847.36
2023-05-21T11:31:39.471Z,100844.38
2023-05-21T11:34:15.181Z,100842.11
2023-05-21T11:36:45.992Z,100838.83
2023-05-21T11:39:22.132Z,100830.64
2023-05-21T11:42:01.609Z,100825.90
2023-05-21T11:44:42.661Z,100829.76
2023-05-21T11:47:11.448Z,100831.48
2023-05-21T11:49:38.759Z,100827.66
2023-05-21T11:52:06.815Z,100827.86
2023-05-21T11:54:37.559Z,100829.02
2023-05-21T11:57:08.179Z,100827.44
2023-05-21T11:59:35.305Z,100819.63
2023-05-21T12:02:03.239Z,100822.95
2023-05-21T12:04:36.594Z,100820.27
2023-05-21T12:07:05.285Z,100824.92
2023-05-21T12:09:32.336Z,100818.64
2023-05-21T12:12:00.997Z,100813.36
2023-05-21T12:14:28.093Z,100811.14
2023-05-21T12:16:55.237Z,100813.23
2023-05-21T12:19:22.628Z,100813.30
2023-05-21T12:21:49.723Z,100814.09
2023-05-21T12:24:16.801Z,100814.92
2023-05-21T12:26:46.108Z,100810.55
2023-05-21T12:29:13.157Z,100811.02
2023-05-21T12:31:49.786Z,100807.46
2023-05-21T12:34:19.047Z,100805.90
2023-05-21T12:36:48.400Z,100804.64
2023-05-21T12:39:16.587Z,100799.96
2023-05-21T12:41:44.146Z,100803.38
2023-05-21T12:44:14.543Z,100798.89
2023-05-21T12:46:41.824Z,100803.32
2023-05-21T12:49:09.086Z,100804.64
2023-05-21T12:51:40.199Z,100799.58
2023-05-21T12:54:14.253Z,100802.19
2023-05-21T12:56:45.596Z,100796.06
2023-05-21T12:59:16.032Z,100797.09
2023-05-21T13:01:43.153Z,100802.58
2023-05-21T13:04:10.351Z,100797.52
2023-05-21T13:06:44.038Z,100795.42
2023-05-21T13:09:11.156Z,100798.85
2023-05-21T13:11:38.274Z,100801.47
2023-05-21T13:14:05.413Z,100793.62
2023-05-21T13:16:32.850Z,100800.69
2023-05-21T13:19:00.937Z,100799.96
2023-05-21T13:21:28.885Z,100785.61
2023-05-21T13:23:56.114Z,100791.16
2023-05-21T13:26:23.404Z,100788.81
2023-05-21T13:28:50.686Z,100793.17
2023-05-21T13:31:18.322Z,100790.46
2023-05-21T13:33:45.587Z,100792.21
2023-05-21T13:36:12.783Z,100791.06
2023-05-21T13:38:39.867Z,100786.27
2023-05-21T13:41:07.383Z,100779.83
2023-05-21T13:43:34.637Z,100779.92
2023-05-21T13:46:02.253Z,100777.39
2023-05-21T13:48:29.598Z,100778.41
2023-05-21T13:50:56.786Z,100773.56
2023-05-21T13:53:24.023Z,100778.05
2023-05-21T13:55:51.322Z,100779.39
2023-05-21T13:58:18.483Z,100773.61
2023-05-21T14:00:45.797Z,100770.14
2023-05-21T14:03:13.017Z,100761.99
2023-05-21T14:05:40.217Z,100755.77
2023-05-21T14:08:07.330Z,100753.73
2023-05-21T14:10:34.672Z,100748.34
2023-05-21T14:13:15.400Z,100747.86
2023-05-21T14:15:43.372Z,100741.39
2023-05-21T14:18:12.484Z,100733.36
2023-05-21T14:20:39.780Z,100728.45
2023-05-21T14:23:07.178Z,100723.89
2023-05-21T14:25:34.727Z,100718.82
2023-05-21T14:28:01.929Z,100719.86
2023-05-21T14:30:29.162Z,100710.02
2023-05-21T14:32:58.008Z,100706.96
2023-05-21T14:35:25.312Z,100707.04
2023-05-21T14:37:53.311Z,100705.57
2023-05-21T14:40:20.768Z,100703.03
2023-05-21T14:42:47.807Z,100697.99
2023-05-21T14:45:19.212Z,100700.83
2023-05-21T14:47:47.929Z,100697.96
2023-05-21T14:50:15.943Z,100700.56
2023-05-21T14:52:43.383Z,100702.97
2023-05-21T14:55:10.907Z,100701.08
2023-05-21T14:57:38.276Z,100704.31
2023-05-21T15:00:06.092Z,100703.23
2023-05-21T15:02:33.300Z,100706.30
2023-05-21T15:05:00.679Z,100713.13
2023-05-21T15:07:27.737Z,100714.05
2023-05-21T15:09:54.792Z,100716.91
2023-05-21T15:12:21.878Z,100720.75
2023-05-21T15:14:48.995Z,100721.51
2023-05-21T15:17:16.110Z,100723.28
2023-05-21T15:19:43.277Z,100726.75
2023-05-21T15:22:10.401Z,100733.80
2023-05-21T15:24:37.786Z,100730.20
2023-05-21T15:27:06.015Z,100732.88
2023-05-21T15:29:33.327Z,100740.29
2023-05-21T15:32:01.367Z,100737.27
2023-05-21T15:34:28.605Z,100736.38
2023-05-21T15:36:58.114Z,100733.34
2023-05-21T15:39:25.338Z,100736.74
2023-05-21T15:41:54.145Z,100735.66
2023-05-21T15:44:23.856Z,100733.94
2023-05-21T15:46:51.825Z,100732.92
2023-05-21T15:49:19.174Z,100734.12
2023-05-21T15:51:49.481Z,100736.73
2023-05-21T15:54:16.627Z,100732.73
2023-05-21T15:56:45.460Z,100738.86
2023-05-21T15:59:14.070Z,100739.30
2023-05-21T16:01:41.204Z,100741.64
2023-05-21T16:04:08.414Z,100742.20
2023-05-21T16:06:35.577Z,100743.38
2023-05-21T16:09:02.723Z,100741.94
2023-05-21T16:11:29.846Z,100748.08
2023-05-21T16:13:57.646Z,100751.90
2023-05-21T16:16:24.949Z,100753.88
2023-05-21T16:18:52.210Z,100751.91
2023-05-21T16:21:19.365Z,100755.95
2023-05-21T16:23:46.594Z,100757.98
2023-05-21T16:26:13.836Z,100761.48
2023-05-21T16:28:41.425Z,100762.40
2023-05-21T16:31:09.837Z,100767.38
2023-05-21T16:33:36.959Z,100769.26
2023-05-21T16:36:04.947Z,100774.83
2023-05-21T16:38:35.545Z,100772.58
2023-05-21T16:41:02.720Z,100772.21
2023-05-21T16:43:30.266Z,100775.16
2023-05-21T16:45:57.545Z,100786.05
2023-05-21T16:48:26.127Z,100794.80
2023-05-21T16:50:53.309Z,100796.18
2023-05-21T16:53:20.740Z,100797.17
2023-05-21T16:55:48.071Z,100798.00
2023-05-21T16:58:15.285Z,100802.64
2023-05-21T17:00:42.647Z,100801.56
2023-05-21T17:03:09.875Z,100806.81
2023-05-21T17:05:37.346Z,100806.83
2023-05-21T17:08:04.916Z,100808.89
2023-05-21T17:10:32.655Z,100815.91
2023-05-21T17:13:01.854Z,100818.90
2023-05-21T17:15:33.874Z,100820.78
2023-05-21T17:18:01.176Z,100820.17
2023-05-21T17:20:29.913Z,100822.72
2023-05-21T17:22:57.171Z,100818.81
2023-05-21T17:25:25.345Z,100813.95
2023-05-21T17:27:53.380Z,100808.92
2023-05-21T17:30:22.559Z,100810.45
2023-05-21T17:32:50.967Z,100811.69
2023-05-21T17:35:18.283Z,100811.39
2023-05-21T17:37:45.626Z,100811.98
2023-05-21T17:40:13.022Z,100811.91
2023-05-21T17:42:40.134Z,100811.27
2023-05-21T17:45:07.598Z,100809.84
2023-05-21T17:47:34.777Z,100813.36
2023-05-21T17:50:01.920Z,100816.82
2023-05-21T17:52:29.393Z,100812.25
2023-05-21T17:54:56.702Z,100817.78
2023-05-21T17:57:23.805Z,100815.54
2023-05-21T17:59:51.048Z,100813.23
2023-05-21T18:02:18.230Z,100818.50
2023-05-21T18:04:45.586Z,100818.92
2023-05-21T18:07:12.673Z,100815.98
2023-05-21T18:09:39.729Z,100814.54
2023-05-21T18:12:07.436Z,100813.75
2023-05-21T18:14:34.637Z,100812.79
2023-05-21T18:17:01.838Z,100817.41
2023-05-21T18:19:30.227Z,100814.42
2023-05-21T18:21:57.548Z,100820.23
2023-05-21T18:24:24.711Z,100817.80
2023-05-21T18:26:51.897Z,100812.91
2023-05-21T18:29:18.946Z,100818.77
2023-05-21T18:31:46.347Z,100826.92
2023-05-21T18:34:14.378Z,100822.45
2023-05-21T18:36:41.631Z,100824.47
2023-05-21T18:39:09.338Z,100833.40
2023-05-21T18:41:37.494Z,100832.11
2023-05-21T18:44:06.298Z,100834.67
2023-05-21T18:46:33.483Z,100836.20
2023-05-21T18:49:01.150Z,100842.42
2023-05-21T18:51:28.387Z,100846.38
2023-05-21T18:53:56.169Z,100847.39
2023-05-21T18:56:23.269Z,100845.36
2023-05-21T18:58:50.471Z,100847.63
2023-05-21T19:01:18.451Z,100851.64
2023-05-21T19:03:45.929Z,100850.11
2023-05-21T19:06:13.145Z,100847.12
2023-05-21T19:08:41.411Z,100847.59
2023-05-21T19:11:08.722Z,100846.91
2023-05-21T19:13:35.900Z,100848.73
2023-05-21T19:16:03.197Z,100842.46
2023-05-21T19:18:31.803Z,100841.72
2023-05-21T19:21:00.373Z,100842.13
2023-05-21T19:23:28.571Z,100844.25
2023-05-21T19:25:56.662Z,100843.38
2023-05-21T19:28:23.906Z,100841.15
2023-05-21T19:30:51.167Z,100841.02
2023-05-21T19:33:18.357Z,100839.35
2023-05-21T19:35:45.605Z,100838.86
2023-05-21T19:38:12.904Z,100835.48
2023-05-21T19:40:40.878Z,100832.36
2023-05-21T19:43:07.935Z,100833.81
2023-05-21T19:45:35.328Z,100840.15
2023-05-21T19:48:02.810Z,100846.36
2023-05-21T19:50:30.182Z,100849.00
2023-05-21T19:52:57.414Z,100850.27
2023-05-21T19:55:25.128Z,100849.44
2023-05-21T19:57:52.241Z,100860.44
2023-05-21T20:00:19.743Z,100858.91
2023-05-21T20:02:46.955Z,100864.69
2023-05-21T20:05:14.749Z,100865.77
2023-05-21T20:07:42.563Z,100863.86
2023-05-21T20:10:09.794Z,100860.64
2023-05-21T20:12:37.245Z,100853.77
2023-05-21T20:15:08.167Z,100850.11
2023-05-21T20:17:36.266Z,100845.61
2023-05-21T20:20:06.275Z,100841.77
2023-05-21T20:22:33.527Z,100842.02
2023-05-21T20:25:01.927Z,100836.31
2023-05-21T20:27:28.949Z,100840.64
2023-05-21T20:29:56.174Z,100840.60
2023-05-21T20:32:23.307Z,100839.13
2023-05-21T20:35:02.138Z,100843.72
2023-05-21T20:37:32.565Z,100847.46
2023-05-21T20:40:00.063Z,100848.47
2023-05-21T20:42:28.766Z,100851.43
2023-05-21T20:44:58.988Z,100852.11
2023-05-21T20:47:30.256Z,100853.70
2023-05-21T20:49:59.038Z,100854.12
2023-05-21T20:52:26.268Z,100853.92
2023-05-21T20:54:54.941Z,100853.67
2023-05-21T20:57:26.301Z,100854.89
2023-05-21T20:59:53.748Z,100849.99
2023-05-21T21:02:21.309Z,100846.19
2023-05-21T21:04:51.198Z,100849.27
2023-05-21T21:07:18.432Z,100846.39
2023-05-21T21:09:46.693Z,100844.67
2023-05-21T21:12:25.220Z,100848.98
2023-05-21T21:14:53.647Z,100850.85
2023-05-21T21:17:20.937Z,100853.70
2023-05-21T21:19:48.023Z,100857.58
2023-05-21T21:22:15.733Z,100856.19
2023-05-21T21:24:42.790Z,100863.27
2023-05-21T21:27:10.173Z,100858.59
2023-05-21T21:29:37.213Z,100860.85
2023-05-21T21:32:04.734Z,100858.17
2023-05-21T21:34:31.759Z,100859.31
2023-05-21T21:36:58.791Z,100856.52
2023-05-21T21:39:26.993Z,100853.61
2023-05-21T21:41:54.154Z,100852.08
2023-05-21T21:44:21.830Z,100851.19
2023-05-21T21:46:49.189Z,100846.42
2023-05-21T21:49:19.208Z,100845.81
2023-05-21T21:51:46.379Z,100844.77
2023-05-21T21:54:13.419Z,100844.52
2023-05-21T21:56:40.779Z,100838.55
2023-05-21T21:59:08.009Z,100839.11
2023-05-21T22:01:36.260Z,100839.95
2023-05-21T22:04:03.508Z,100839.59
2023-05-21T22:06:31.655Z,100841.37
2023-05-21T22:08:58.897Z,100837.93
2023-05-21T22:11:27.089Z,100839.53
2023-05-21T22:13:54.353Z,100843.61
2023-05-21T22:16:21.408Z,100842.83
2023-05-21T22:18:50.308Z,100840.09
2023-05-21T22:21:18.577Z,100837.02
2023-05-21T22:23:45.690Z,100841.11
2023-05-21T22:26:12.701Z,100838.33
2023-05-21T22:28:39.818Z,100834.19
2023-05-21T22:31:07.846Z,100833.90
2023-05-21T22:33:34.937Z,100831.61
2023-05-21T22:36:02.094Z,100823.98
2023-05-21T22:38:29.188Z,100820.92
2023-05-21T22:40:56.358Z,100819.60
2023-05-21T22:43:23.878Z,100823.08
2023-05-21T22:45:50.899Z,100819.90
2023-05-21T22:48:18.354Z,100821.54
2023-05-21T22:50:46.308Z,100821.94
2023-05-21T22:53:13.947Z,100820.73
2023-05-21T22:55:41.283Z,100823.13
2023-05-21T22:58:08.735Z,100826.00
2023-05-21T23:00:36.207Z,100826.15
2023-05-21T23:03:03.889Z,100830.41
2023-05-21T23:05:31.433Z,100831.61
2023-05-21T23:07:58.462Z,100831.36
2023-05-21T23:10:25.689Z,100829.70
2023-05-21T23:12:52.873Z,100834.92
2023-05-21T23:15:19.955Z,100837.45
2023-05-21T23:17:47.245Z,100834.73
2023-05-21T23:20:15.618Z,100834.02
2023-05-21T23:22:42.643Z,100837.05
2023-05-21T23:25:10.060Z,100840.17
2023-05-21T23:27:37.198Z,100839.67
2023-05-21T23:30:04.565Z,100841.48
2023-05-21T23:32:31.671Z,100842.14
2023-05-21T23:34:58.796Z,100842.69
2023-05-21T23:37:25.970Z,100843.17
2023-05-21T23:39:52.985Z,100843.02
2023-05-21T23:42:20.258Z,100836.38
2023-05-21T23:44:47.392Z,100834.62
2023-05-21T23:47:14.424Z,100833.86
2023-05-21T23:49:41.456Z,100829.06
2023-05-21T23:52:08.733Z,100830.61
2023-05-21T23:54:35.906Z,100829.83
2023-05-21T23:57:03.122Z,100827.14
2023-05-21T23:59:30.249Z,100831.98
